Time;durP1;ratioP1;P1;durP2;ratioP2;P2;SDS_P1;SDS_P2;PMS_P1;PMS_P2;Temp;Humidity;BMP_temperature;BMP_pressure;BME280_temperature;BME280_humidity;BME280_pressure;Samples;Min_cycle;Max_cycle;Signal;HPM_P1;HPM_P2
2022/04/16 00:00:27;;;;;;;24.77;13.70;;;;;;;8.56;100.00;102171.91;5978516;29;20059;-93
2022/04/16 00:03:29;;;;;;;21.55;11.52;;;;;;;8.44;100.00;102171.59;5994216;29;20034;-93
2022/04/16 00:06:32;;;;;;;25.55;14.02;;;;;;;8.44;100.00;102169.03;5972790;29;20042;-93
2022/04/16 00:09:34;;;;;;;23.48;13.32;;;;;;;8.40;100.00;102166.59;5978904;29;20058;-93
2022/04/16 00:12:36;;;;;;;23.13;13.18;;;;;;;8.31;100.00;102174.69;5975906;29;20054;-93
2022/04/16 00:15:38;;;;;;;25.92;13.63;;;;;;;8.28;100.00;102179.97;5977779;29;20446;-93
2022/04/16 00:18:40;;;;;;;27.05;13.30;;;;;;;8.32;100.00;102181.53;5980508;29;20042;-93
2022/04/16 00:21:41;;;;;;;24.95;13.15;;;;;;;8.26;100.00;102181.78;5971484;29;20046;-91
2022/04/16 00:24:44;;;;;;;21.58;11.70;;;;;;;8.31;100.00;102176.44;5979028;29;20496;-93
2022/04/16 00:27:49;;;;;;;22.48;11.77;;;;;;;8.25;100.00;102174.97;5971949;29;20043;-94
2022/04/16 00:30:51;;;;;;;23.60;11.80;;;;;;;8.28;100.00;102182.56;5974728;29;20830;-93
2022/04/16 00:33:52;;;;;;;24.95;11.70;;;;;;;8.26;100.00;102186.94;5981242;29;20552;-93
2022/04/16 00:36:54;;;;;;;22.85;12.48;;;;;;;8.23;100.00;102189.66;5973981;29;20050;-93
2022/04/16 00:39:56;;;;;;;25.77;12.13;;;;;;;8.26;100.00;102192.09;5975603;29;20141;-93
2022/04/16 00:43:00;;;;;;;24.70;12.18;;;;;;;8.27;100.00;102180.88;5979698;29;20050;-94
2022/04/16 00:46:02;;;;;;;26.40;12.50;;;;;;;8.18;100.00;102191.59;5971526;29;20115;-93
2022/04/16 00:49:04;;;;;;;26.33;12.68;;;;;;;8.16;100.00;102195.97;5979813;29;20051;-93
2022/04/16 00:52:08;;;;;;;26.73;12.23;;;;;;;8.13;100.00;102190.94;5975225;29;20050;-93
2022/04/16 00:55:11;;;;;;;30.10;13.65;;;;;;;8.18;100.00;102201.91;5986393;29;20046;-93
2022/04/16 00:58:13;;;;;;;25.10;13.00;;;;;;;8.15;100.00;102194.31;5988566;29;20673;-93
2022/04/16 01:01:15;;;;;;;23.05;11.20;;;;;;;8.07;100.00;102192.03;5982419;29;20492;-93
2022/04/16 01:04:17;;;;;;;22.42;11.35;;;;;;;7.97;100.00;102191.59;5980906;29;20408;-92
2022/04/16 01:07:23;;;;;;;25.23;12.40;;;;;;;7.95;100.00;102197.72;5979147;29;20062;-92
2022/04/16 01:10:26;;;;;;;25.30;11.05;;;;;;;7.89;100.00;102192.78;5976450;29;20536;-92
2022/04/16 01:13:28;;;;;;;19.60;10.23;;;;;;;7.75;100.00;102204.50;5978140;29;20409;-93
2022/04/16 01:16:31;;;;;;;15.82;8.13;;;;;;;7.76;100.00;102208.75;5973018;29;20050;-92
2022/04/16 01:19:37;;;;;;;13.85;8.27;;;;;;;7.68;100.00;102215.13;5973905;29;20512;-93
2022/04/16 01:22:39;;;;;;;15.18;7.93;;;;;;;7.64;100.00;102218.72;5982307;29;20050;-93
2022/04/16 01:25:42;;;;;;;15.65;7.32;;;;;;;7.55;100.00;102217.31;5980679;29;20059;-92
2022/04/16 01:28:44;;;;;;;10.13;6.25;;;;;;;7.48;100.00;102215.91;5974485;29;20077;-91
2022/04/16 01:31:46;;;;;;;14.52;6.47;;;;;;;7.43;100.00;102226.41;5975126;29;20042;-92
2022/04/16 01:34:48;;;;;;;12.30;6.20;;;;;;;7.50;100.00;102234.69;5969627;29;20705;-92
2022/04/16 01:37:50;;;;;;;9.40;5.10;;;;;;;7.46;100.00;102230.59;5974044;29;20552;-93
2022/04/16 01:40:56;;;;;;;12.90;5.15;;;;;;;7.41;100.00;102235.06;5969395;29;20047;-94
2022/04/16 01:43:57;;;;;;;7.13;3.88;;;;;;;7.45;100.00;102237.47;5970590;29;20050;-92
2022/04/16 01:46:59;;;;;;;8.48;4.20;;;;;;;7.41;100.00;102246.22;5973646;29;20054;-92
2022/04/16 01:50:01;;;;;;;7.97;4.55;;;;;;;7.40;100.00;102244.53;5989414;29;20061;-92
2022/04/16 01:53:03;;;;;;;6.43;4.18;;;;;;;7.28;100.00;102248.41;5977128;29;20117;-93
2022/04/16 01:56:05;;;;;;;8.63;4.25;;;;;;;7.31;100.00;102250.88;5959870;29;20050;-92
2022/04/16 01:59:08;;;;;;;8.38;4.85;;;;;;;7.28;100.00;102252.75;5970224;29;20066;-94
2022/04/16 02:02:10;;;;;;;9.25;4.82;;;;;;;7.25;100.00;102243.34;5973629;29;20407;-93
2022/04/16 02:05:12;;;;;;;9.43;4.93;;;;;;;7.28;100.00;102251.00;5970652;29;20070;-94
2022/04/16 02:08:14;;;;;;;8.85;5.20;;;;;;;7.30;100.00;102249.22;5982804;29;20049;-91
2022/04/16 02:11:16;;;;;;;7.20;4.40;;;;;;;7.31;100.00;102247.47;5989205;29;20058;-92
2022/04/16 02:14:18;;;;;;;9.43;4.63;;;;;;;7.22;100.00;102246.06;5976808;29;20051;-93
2022/04/16 02:17:19;;;;;;;8.77;4.85;;;;;;;7.11;100.00;102259.34;5984831;29;20199;-92
2022/04/16 02:20:23;;;;;;;10.90;5.55;;;;;;;7.07;100.00;102264.66;5979706;29;20046;-92
2022/04/16 02:23:25;;;;;;;6.07;4.18;;;;;;;7.04;100.00;102270.75;5979725;29;20068;-92
2022/04/16 02:26:27;;;;;;;10.85;4.28;;;;;;;7.18;100.00;102269.41;5974364;29;20176;-91
2022/04/16 02:29:29;;;;;;;5.85;3.60;;;;;;;7.01;100.00;102264.88;5988197;29;20665;-93
2022/04/16 02:32:31;;;;;;;5.20;3.28;;;;;;;7.02;100.00;102275.09;5982010;29;20057;-92
2022/04/16 02:35:33;;;;;;;6.78;3.67;;;;;;;6.87;100.00;102279.06;5992194;29;20484;-92
2022/04/16 02:38:35;;;;;;;5.82;3.38;;;;;;;6.85;100.00;102275.69;5979867;29;20138;-92
2022/04/16 02:41:37;;;;;;;6.90;3.60;;;;;;;6.65;100.00;102283.28;5986612;29;20087;-93
2022/04/16 02:48:07;;;;;;;6.05;3.70;;;;;;;6.19;100.00;102284.81;5981764;29;20038;-92
2022/04/16 02:51:09;;;;;;;6.78;3.00;;;;;;;6.04;100.00;102293.88;5975886;29;20103;-92
2022/04/16 02:54:11;;;;;;;6.10;2.47;;;;;;;5.78;100.00;102297.19;5974720;29;20057;-92
2022/04/16 02:57:13;;;;;;;6.85;3.17;;;;;;;5.58;100.00;102302.91;5975942;29;20154;-91
2022/04/16 03:00:15;;;;;;;5.50;2.85;;;;;;;5.45;100.00;102299.03;5981861;29;20497;-92
2022/04/16 03:03:17;;;;;;;4.00;2.47;;;;;;;5.35;100.00;102298.47;5974447;29;20074;-92
2022/04/16 03:06:19;;;;;;;5.93;2.97;;;;;;;5.26;100.00;102302.13;5980517;29;20050;-92
2022/04/16 03:09:20;;;;;;;6.13;3.00;;;;;;;5.10;100.00;102306.00;5984696;29;20110;-91
2022/04/16 03:12:22;;;;;;;4.32;3.03;;;;;;;5.05;100.00;102307.84;5998647;29;20061;-91
2022/04/16 03:18:45;;;;;;;4.30;2.42;;;;;;;4.86;100.00;102313.47;5984770;29;20055;-91
2022/04/16 03:21:47;;;;;;;5.50;2.92;;;;;;;4.75;100.00;102316.31;5974416;29;20129;-91
2022/04/16 03:24:49;;;;;;;4.78;3.00;;;;;;;4.69;100.00;102320.75;5980178;29;20519;-89
2022/04/16 03:27:51;;;;;;;4.30;3.00;;;;;;;4.68;100.00;102317.34;5979383;29;20035;-91
2022/04/16 03:30:53;;;;;;;4.47;2.90;;;;;;;4.66;100.00;102328.53;5978432;29;20636;-91
2022/04/16 03:33:55;;;;;;;7.10;3.13;;;;;;;4.43;100.00;102326.53;5975303;29;20483;-91
2022/04/16 03:36:57;;;;;;;6.53;3.03;;;;;;;4.31;100.00;102337.94;5976009;29;20450;-92
2022/04/16 03:39:59;;;;;;;4.90;3.00;;;;;;;4.27;100.00;102336.31;5977463;29;20107;-92
2022/04/16 03:43:02;;;;;;;5.50;2.95;;;;;;;4.21;100.00;102336.47;5976569;29;20065;-91
2022/04/16 03:46:04;;;;;;;3.42;2.92;;;;;;;4.09;100.00;102345.25;5976440;29;20102;-90
2022/04/16 03:49:05;;;;;;;4.28;2.53;;;;;;;4.03;100.00;102341.13;5979605;29;20441;-91
2022/04/16 03:52:07;;;;;;;4.10;2.33;;;;;;;3.97;100.00;102345.53;5975880;29;20110;-91
2022/04/16 04:01:59;;;;;;;3.00;2.27;;;;;;;3.74;100.00;102354.56;5975026;29;20049;-91
2022/04/16 04:05:02;;;;;;;2.58;2.13;;;;;;;3.78;100.00;102355.34;5976369;29;20299;-91
2022/04/16 04:08:06;;;;;;;2.08;1.83;;;;;;;3.61;100.00;102359.09;5972093;29;20553;-91
2022/04/16 04:11:07;;;;;;;4.70;2.20;;;;;;;3.55;100.00;102361.78;5976117;29;20547;-91
2022/04/16 04:14:09;;;;;;;4.45;2.33;;;;;;;3.44;100.00;102377.34;5974760;29;20102;-91
2022/04/16 04:17:12;;;;;;;4.38;2.45;;;;;;;3.53;100.00;102373.78;5977876;29;20046;-91
2022/04/16 04:20:13;;;;;;;5.85;2.80;;;;;;;3.48;100.00;102378.13;5972941;29;20859;-91
2022/04/16 04:23:17;;;;;;;5.60;3.03;;;;;;;3.36;100.00;102373.25;5967904;29;20054;-91
2022/04/16 04:26:19;;;;;;;5.18;2.92;;;;;;;3.33;100.00;102380.97;5992511;29;20194;-91
2022/04/16 04:29:20;;;;;;;4.38;2.63;;;;;;;3.30;100.00;102373.34;5987601;29;20046;-91
2022/04/16 04:32:22;;;;;;;4.90;2.40;;;;;;;3.31;100.00;102388.69;5976859;29;20050;-91
2022/04/16 04:35:24;;;;;;;6.32;2.40;;;;;;;3.27;100.00;102387.03;5972698;29;20200;-90
2022/04/16 04:38:26;;;;;;;4.72;2.47;;;;;;;3.23;100.00;102398.22;5976445;29;20050;-90
2022/04/16 04:41:28;;;;;;;3.97;2.30;;;;;;;3.22;100.00;102389.69;5963613;29;20061;-90
2022/04/16 04:44:30;;;;;;;3.67;2.55;;;;;;;3.25;100.00;102401.59;5973197;29;20183;-91
2022/04/16 04:47:31;;;;;;;3.60;2.30;;;;;;;3.21;100.00;102393.13;5986583;29;20412;-91
2022/04/16 04:50:36;;;;;;;3.30;2.10;;;;;;;3.23;100.00;102393.13;5974874;29;20489;-90
2022/04/16 04:53:38;;;;;;;6.20;2.63;;;;;;;3.23;100.00;102403.34;5986763;29;20050;-91
2022/04/16 04:56:39;;;;;;;4.95;2.50;;;;;;;3.18;100.00;102403.44;5974543;29;20129;-90
2022/04/16 04:59:41;;;;;;;3.53;2.33;;;;;;;3.19;100.00;102404.25;5985499;29;20501;-91
2022/04/16 05:02:45;;;;;;;3.15;2.22;;;;;;;3.22;100.00;102425.50;5978279;29;20421;-91
2022/04/16 05:05:47;;;;;;;4.25;2.05;;;;;;;3.19;100.00;102422.19;5980368;29;20707;-90
2022/04/16 05:08:49;;;;;;;3.88;2.70;;;;;;;3.14;100.00;102435.03;5969695;29;20054;-91
2022/04/16 05:11:51;;;;;;;6.65;2.60;;;;;;;3.20;100.00;102444.31;5981802;29;20046;-90
2022/04/16 05:14:52;;;;;;;4.05;2.42;;;;;;;3.26;100.00;102440.84;5987642;29;20234;-91
2022/04/16 05:17:54;;;;;;;4.78;2.55;;;;;;;3.28;100.00;102445.06;5976241;29;20050;-91
2022/04/16 05:20:56;;;;;;;2.80;2.13;;;;;;;3.30;100.00;102450.97;5972643;29;20057;-91
2022/04/16 05:23:58;;;;;;;3.75;2.47;;;;;;;3.30;100.00;102456.09;5974298;29;20050;-91
2022/04/16 05:27:00;;;;;;;2.80;2.30;;;;;;;3.34;100.00;102467.13;5980643;29;20363;-91
2022/04/16 05:30:06;;;;;;;3.42;2.47;;;;;;;3.33;100.00;102475.66;5968859;29;20054;-90
2022/04/16 05:34:18;;;;;;;3.42;2.42;;;;;;;3.35;100.00;102491.84;5973100;29;20058;-90
2022/04/16 05:36:30;;;;;;;5.60;2.60;;;;;;;3.37;100.00;102485.81;5984104;29;20047;-90
2022/04/16 05:39:32;;;;;;;3.35;2.38;;;;;;;3.39;100.00;102493.50;5972196;29;20043;-91
2022/04/16 05:42:43;;;;;;;5.85;2.78;;;;;;;3.51;100.00;102495.84;5968945;29;20110;-91
2022/04/16 05:45:45;;;;;;;7.05;2.90;;;;;;;3.52;100.00;102504.34;5981687;29;20141;-91
2022/04/16 05:48:47;;;;;;;3.58;2.45;;;;;;;3.49;100.00;102507.81;5969604;29;20046;-91
2022/04/16 05:51:48;;;;;;;2.67;1.95;;;;;;;3.50;100.00;102508.66;5982866;29;20065;-91
2022/04/16 05:54:52;;;;;;;4.20;2.83;;;;;;;3.56;100.00;102509.41;5977474;29;20054;-92
2022/04/16 05:57:54;;;;;;;4.97;2.28;;;;;;;3.55;100.00;102506.84;5974196;29;20050;-91
2022/04/16 06:00:56;;;;;;;3.50;2.80;;;;;;;3.60;100.00;102508.50;5978096;29;20796;-91
2022/04/16 06:03:57;;;;;;;4.28;2.30;;;;;;;3.63;100.00;102502.47;5980712;29;20634;-91
2022/04/16 06:07:00;;;;;;;4.90;2.33;;;;;;;3.72;100.00;102509.13;5983637;29;20580;-91
2022/04/16 06:10:01;;;;;;;3.13;2.00;;;;;;;3.70;100.00;102506.56;5984219;29;20457;-91
2022/04/16 06:13:04;;;;;;;3.60;2.50;;;;;;;3.73;100.00;102508.28;5983159;29;20042;-91
2022/04/16 06:16:08;;;;;;;4.88;2.38;;;;;;;3.82;100.00;102497.81;5994068;29;20053;-92
2022/04/16 06:19:10;;;;;;;5.10;2.10;;;;;;;3.78;100.00;102493.66;5985221;29;20053;-90
2022/04/16 06:22:12;;;;;;;3.38;2.00;;;;;;;3.78;100.00;102494.50;5975612;29;20039;-90
2022/04/16 06:25:14;;;;;;;9.43;2.22;;;;;;;3.79;100.00;102492.78;5992501;29;20056;-90
2022/04/16 06:28:16;;;;;;;3.85;1.98;;;;;;;3.84;100.00;102489.25;5974384;29;20530;-92
2022/04/16 06:31:18;;;;;;;5.72;2.28;;;;;;;3.91;100.00;102477.16;5973170;29;20049;-91
2022/04/16 06:34:23;;;;;;;4.28;2.08;;;;;;;3.95;100.00;102481.38;5974391;29;20594;-91
2022/04/16 06:37:25;;;;;;;3.95;1.70;;;;;;;4.09;100.00;102486.19;5976971;29;20081;-92
2022/04/16 06:40:27;;;;;;;4.38;2.00;;;;;;;4.16;100.00;102489.50;5982406;29;20494;-91
2022/04/16 06:43:29;;;;;;;3.97;2.03;;;;;;;4.21;100.00;102490.25;5969865;29;20368;-91
2022/04/16 06:46:35;;;;;;;5.10;1.67;;;;;;;4.22;100.00;102489.34;5955479;29;20159;-91
2022/04/16 06:49:37;;;;;;;4.10;1.70;;;;;;;4.26;100.00;102488.44;5984483;29;20046;-91
2022/04/16 06:52:39;;;;;;;3.45;1.67;;;;;;;4.26;100.00;102485.88;5971026;29;20055;-91
2022/04/16 06:55:41;;;;;;;3.95;2.70;;;;;;;4.28;100.00;102479.00;5973942;29;20058;-91
2022/04/16 06:58:42;;;;;;;3.83;1.70;;;;;;;4.31;100.00;102496.84;5981584;29;20034;-91
2022/04/16 07:01:44;;;;;;;3.75;1.92;;;;;;;4.36;100.00;102489.91;5974048;29;20050;-91
2022/04/16 07:04:46;;;;;;;2.75;1.80;;;;;;;4.39;100.00;102492.41;5977263;29;20057;-91
2022/04/16 07:07:48;;;;;;;6.15;1.95;;;;;;;4.53;100.00;102489.56;5981058;29;20050;-91
2022/04/16 07:10:49;;;;;;;2.92;1.90;;;;;;;4.63;100.00;102488.47;5977426;29;20795;-89
2022/04/16 07:13:51;;;;;;;3.30;1.70;;;;;;;4.65;100.00;102491.84;5980492;29;20561;-89
2022/04/16 07:16:53;;;;;;;3.80;1.80;;;;;;;4.71;100.00;102493.44;5977487;29;20744;-90
2022/04/16 07:19:55;;;;;;;2.25;1.30;;;;;;;4.82;100.00;102493.16;5978135;29;20521;-89
2022/04/16 07:22:57;;;;;;;2.33;1.63;;;;;;;4.87;100.00;102509.31;5983004;29;20054;-89
2022/04/16 07:25:58;;;;;;;2.45;1.80;;;;;;;4.85;100.00;102509.34;5981072;29;20042;-90
2022/04/16 07:29:00;;;;;;;3.53;1.58;;;;;;;4.93;100.00;102509.16;5981681;29;20042;-89
2022/04/16 07:32:05;;;;;;;5.25;1.80;;;;;;;4.89;100.00;102517.81;5981181;29;20038;-89
2022/04/16 07:35:07;;;;;;;1.92;1.40;;;;;;;5.00;100.00;102509.88;5975946;29;20108;-90
2022/04/16 07:38:08;;;;;;;2.42;1.58;;;;;;;4.99;100.00;102510.75;5981752;29;20102;-89
2022/04/16 07:41:10;;;;;;;3.25;1.70;;;;;;;5.10;100.00;102511.34;5978247;29;20191;-90
2022/04/16 07:44:12;;;;;;;3.40;1.63;;;;;;;5.11;100.00;102516.44;5985623;29;20077;-90
2022/04/16 07:47:14;;;;;;;2.10;1.45;;;;;;;5.20;100.00;102523.06;5986643;29;20046;-90
2022/04/16 07:50:16;;;;;;;2.58;1.60;;;;;;;5.24;100.00;102521.25;5972124;29;20038;-89
2022/04/16 07:53:18;;;;;;;3.60;1.70;;;;;;;5.36;100.00;102523.53;5985089;29;20050;-89
2022/04/16 07:56:20;;;;;;;1.75;1.65;;;;;;;5.45;100.00;102520.75;5983320;29;20432;-89
2022/04/16 07:59:22;;;;;;;2.00;1.50;;;;;;;5.50;100.00;102530.91;5984679;29;20061;-89
2022/04/16 08:02:24;;;;;;;3.53;1.70;;;;;;;5.57;100.00;102532.44;5983274;29;20446;-89
2022/04/16 08:05:26;;;;;;;3.30;1.50;;;;;;;5.56;100.00;102525.59;5985582;29;20174;-89
2022/04/16 08:08:29;;;;;;;3.80;1.70;;;;;;;5.65;100.00;102527.09;5974094;29;20362;-90
2022/04/16 08:11:32;;;;;;;5.22;1.70;;;;;;;5.73;100.00;102531.13;5992865;29;20525;-89
2022/04/16 08:14:34;;;;;;;1.85;1.50;;;;;;;5.78;100.00;102531.03;5986905;29;20405;-89
2022/04/16 08:17:37;;;;;;;2.75;1.70;;;;;;;5.83;100.00;102536.88;5974713;29;20043;-89
2022/04/16 08:20:39;;;;;;;2.35;1.77;;;;;;;5.90;100.00;102537.56;5978075;29;20046;-89
2022/04/16 08:23:54;;;;;;;2.20;1.67;;;;;;;6.00;100.00;102531.31;5994119;29;20665;-89
2022/04/16 08:26:56;;;;;;;2.28;1.65;;;;;;;6.07;100.00;102537.16;5982069;29;20166;-89
2022/04/16 08:29:58;;;;;;;2.70;1.50;;;;;;;6.17;100.00;102541.16;5984515;29;20038;-89
2022/04/16 08:33:00;;;;;;;1.90;1.70;;;;;;;6.26;100.00;102548.63;5981050;29;20534;-89
2022/04/16 08:36:02;;;;;;;1.60;1.50;;;;;;;6.25;100.00;102545.16;5983383;29;20523;-89
2022/04/16 08:39:04;;;;;;;2.08;1.50;;;;;;;6.27;100.00;102549.44;5975962;29;20042;-89
2022/04/16 08:42:06;;;;;;;3.60;1.73;;;;;;;6.27;100.00;102550.28;5986123;29;20046;-89
2022/04/16 08:45:09;;;;;;;2.78;1.80;;;;;;;6.36;100.00;102552.59;5988322;29;20050;-89
2022/04/16 08:48:14;;;;;;;1.83;1.60;;;;;;;6.49;100.00;102549.69;5979749;29;20058;-90
2022/04/16 08:51:16;;;;;;;5.68;2.22;;;;;;;6.61;100.00;102551.91;5984017;29;20385;-90
2022/04/16 08:54:18;;;;;;;1.98;1.50;;;;;;;6.83;95.53;102550.34;5980611;29;20415;-90
2022/04/16 08:57:20;;;;;;;2.42;1.70;;;;;;;6.86;95.62;102545.09;5977926;29;20125;-90
2022/04/16 09:00:22;;;;;;;4.38;1.50;;;;;;;6.95;95.83;102550.84;5981734;29;20052;-90
2022/04/16 09:03:34;;;;;;;4.03;1.42;;;;;;;7.05;94.74;102547.94;5982334;29;20050;-90
2022/04/16 09:06:36;;;;;;;2.28;1.60;;;;;;;7.06;94.90;102544.47;5975017;29;20050;-91
2022/04/16 09:09:38;;;;;;;3.72;2.00;;;;;;;7.12;94.16;102538.28;5972816;29;20103;-90
2022/04/16 09:12:41;;;;;;;1.60;1.48;;;;;;;7.19;95.35;102546.66;5973469;29;20501;-90
2022/04/16 09:15:43;;;;;;;4.10;1.80;;;;;;;7.19;94.67;102552.66;5979761;29;20050;-90
2022/04/16 09:18:55;;;;;;;3.00;1.25;;;;;;;7.25;94.37;102549.88;5973461;29;20061;-90
2022/04/16 09:21:58;;;;;;;5.03;1.30;;;;;;;7.45;92.36;102544.09;5975691;29;20110;-90
2022/04/16 09:25:00;;;;;;;2.28;1.52;;;;;;;7.61;92.12;102538.41;5984602;29;20049;-90
2022/04/16 09:28:06;;;;;;;1.58;1.27;;;;;;;7.70;89.61;102540.66;5989661;29;20061;-89
2022/04/16 09:31:08;;;;;;;2.42;1.27;;;;;;;7.78;88.64;102541.25;5981799;29;20599;-90
2022/04/16 09:34:30;;;;;;;2.17;1.42;;;;;;;7.85;86.96;102536.69;5980634;29;20090;-96
2022/04/16 09:37:33;;;;;;;3.13;1.63;;;;;;;7.92;87.25;102551.06;5979489;29;20045;-90
2022/04/16 09:40:36;;;;;;;2.63;1.50;;;;;;;7.92;87.46;102546.75;5964878;29;20480;-92
2022/04/16 09:43:38;;;;;;;1.73;1.10;;;;;;;7.99;87.68;102550.78;5989249;29;20078;-91
2022/04/16 09:46:43;;;;;;;2.38;1.50;;;;;;;8.02;88.17;102534.38;5985333;29;20139;-91
2022/04/16 09:49:45;;;;;;;2.67;1.40;;;;;;;8.22;89.73;102543.97;5984183;29;20416;-92
2022/04/16 09:52:59;;;;;;;3.30;1.73;;;;;;;8.32;88.72;102536.72;5988230;29;20050;-90
2022/04/16 09:56:01;;;;;;;1.30;1.20;;;;;;;8.49;84.36;102544.72;5984545;29;20054;-88
2022/04/16 09:59:08;;;;;;;2.65;1.30;;;;;;;8.53;85.31;102548.88;5981151;29;20046;-88
2022/04/16 10:02:15;;;;;;;2.20;1.20;;;;;;;8.62;84.27;102545.09;5986714;29;20110;-86
2022/04/16 10:05:19;;;;;;;1.90;1.33;;;;;;;8.72;85.76;102555.91;5977016;29;20133;-88
2022/04/16 10:08:22;;;;;;;3.70;1.70;;;;;;;8.82;78.72;102547.75;5977087;29;20130;-88
2022/04/16 10:15:20;;;;;;;3.22;1.55;;;;;;;8.86;80.34;102543.31;5974707;29;21219;-88
2022/04/16 10:18:23;;;;;;;4.95;1.38;;;;;;;8.89;81.11;102540.59;5979976;29;20051;-88
2022/04/16 10:21:32;;;;;;;2.67;1.55;;;;;;;9.03;82.89;102540.06;5986447;29;20429;-88
2022/04/16 10:24:34;;;;;;;1.80;1.60;;;;;;;9.18;79.56;102539.44;5992383;29;20122;-88
2022/04/16 10:27:42;;;;;;;2.58;1.35;;;;;;;9.29;76.33;102544.16;5984130;29;20398;-88
2022/04/16 10:30:54;;;;;;;3.63;1.60;;;;;;;9.37;77.37;102543.88;5988831;29;20046;-88
2022/04/16 10:34:16;;;;;;;2.28;1.48;;;;;;;9.40;76.40;102539.41;5975120;29;20046;-87
2022/04/16 10:37:23;;;;;;;2.22;1.33;;;;;;;9.53;73.45;102531.13;5976834;29;20053;-88
2022/04/16 10:40:25;;;;;;;1.95;1.20;;;;;;;9.62;71.37;102538.50;5977681;29;20456;-88
2022/04/16 10:43:30;;;;;;;2.00;1.38;;;;;;;9.63;70.63;102529.84;5980311;29;20414;-89
2022/04/16 10:46:49;;;;;;;1.35;1.17;;;;;;;9.66;73.92;102533.13;5984154;29;20420;-88
2022/04/16 10:49:57;;;;;;;2.00;1.42;;;;;;;9.78;71.76;102538.69;5978509;29;20539;-88
2022/04/16 10:53:02;;;;;;;1.65;1.20;;;;;;;9.94;70.37;102542.28;5968160;29;20042;-89
2022/04/16 10:56:17;;;;;;;3.17;1.40;;;;;;;10.09;67.04;102544.19;5985779;29;20299;-89
2022/04/16 10:59:34;;;;;;;2.92;1.15;;;;;;;10.12;63.31;102541.47;5982667;29;20042;-90
2022/04/16 11:02:36;;;;;;;1.48;1.05;;;;;;;10.23;62.48;102543.56;5985557;29;20034;-89
2022/04/16 11:05:41;;;;;;;1.23;1.00;;;;;;;10.26;65.26;102543.44;5989699;29;20042;-88
2022/04/16 11:08:47;;;;;;;2.53;0.98;;;;;;;10.35;65.93;102540.44;5986823;29;20050;-88
2022/04/16 11:11:52;;;;;;;1.73;1.10;;;;;;;10.49;66.86;102544.16;5984095;29;20046;-88
2022/04/16 11:14:55;;;;;;;1.73;1.40;;;;;;;10.66;65.31;102535.63;5983038;29;20516;-88
2022/04/16 11:17:58;;;;;;;2.38;1.20;;;;;;;10.75;64.02;102537.75;5985902;29;20094;-88
2022/04/16 11:21:06;;;;;;;2.97;1.52;;;;;;;10.88;63.70;102535.41;5985377;29;20125;-88
2022/04/16 11:24:08;;;;;;;3.03;1.48;;;;;;;11.02;61.16;102538.19;5980797;29;20575;-88
2022/04/16 11:37:14;;;;;;;2.75;1.40;;;;;;;11.45;58.76;102528.28;5989137;29;20042;-88
2022/04/16 11:40:16;;;;;;;2.28;1.20;;;;;;;11.52;62.29;102531.41;5984782;29;20034;-88
2022/04/16 11:43:21;;;;;;;1.88;1.27;;;;;;;11.64;58.49;102528.19;5987032;29;20133;-88
2022/04/16 11:46:23;;;;;;;1.38;1.25;;;;;;;11.69;56.94;102525.38;5983617;29;20044;-89
2022/04/16 11:49:25;;;;;;;2.72;1.30;;;;;;;11.72;58.09;102527.78;5990190;29;20049;-88
2022/04/16 11:52:31;;;;;;;1.85;1.20;;;;;;;11.87;54.54;102521.00;5985107;29;20038;-88
2022/04/16 11:55:52;;;;;;;3.10;1.20;;;;;;;11.99;55.33;102518.59;5982404;29;20406;-88
2022/04/16 11:58:54;;;;;;;1.55;1.40;;;;;;;12.06;57.33;102519.13;5968742;29;20058;-88
2022/04/16 12:01:57;;;;;;;2.80;1.48;;;;;;;12.11;53.42;102514.53;5966395;29;20043;-88
2022/04/16 12:05:14;;;;;;;1.67;1.33;;;;;;;12.19;55.10;102503.72;5978623;29;20050;-88
2022/04/16 12:08:20;;;;;;;2.15;1.15;;;;;;;12.29;56.86;102507.50;5958225;29;20066;-88
2022/04/16 12:11:22;;;;;;;3.03;1.77;;;;;;;12.46;54.32;102498.78;5987515;29;20405;-88
2022/04/16 12:14:26;;;;;;;1.35;1.10;;;;;;;12.61;53.58;102497.09;5966873;29;20047;-87
2022/04/16 12:17:31;;;;;;;1.77;1.02;;;;;;;12.74;53.87;102489.44;5974747;29;20087;-88
2022/04/16 12:20:33;;;;;;;1.85;1.27;;;;;;;12.75;54.13;102493.72;5967537;29;20140;-87
2022/04/16 12:23:38;;;;;;;1.95;1.30;;;;;;;12.89;55.02;102491.16;5974400;29;20046;-88
2022/04/16 12:26:56;;;;;;;1.92;1.25;;;;;;;13.01;50.50;102485.25;5962899;29;20412;-88
2022/04/16 12:29:59;;;;;;;2.13;1.40;;;;;;;13.17;53.01;102486.97;5970947;29;20051;-88
2022/04/16 12:33:13;;;;;;;3.20;1.20;;;;;;;13.22;52.03;102490.16;5971598;29;20421;-87
2022/04/16 12:36:15;;;;;;;2.35;1.58;;;;;;;13.36;51.59;102479.78;5970431;29;20049;-88
2022/04/16 12:39:17;;;;;;;1.35;1.25;;;;;;;13.50;50.81;102478.97;5970508;29;20047;-88
2022/04/16 12:42:18;;;;;;;4.65;1.30;;;;;;;13.60;47.25;102481.88;5980894;29;20464;-87
2022/04/16 12:45:22;;;;;;;2.35;1.20;;;;;;;13.66;48.00;102487.50;5980084;29;20105;-88
2022/04/16 12:48:24;;;;;;;1.30;1.20;;;;;;;13.67;47.98;102481.41;5975979;29;20054;-88
2022/04/16 12:51:29;;;;;;;1.45;1.33;;;;;;;13.73;49.44;102477.56;5979653;29;20180;-88
2022/04/16 12:54:31;;;;;;;1.50;1.30;;;;;;;13.89;46.56;102486.13;5962941;29;20042;-88
2022/04/16 12:57:33;;;;;;;1.40;1.08;;;;;;;14.00;45.47;102477.66;5964744;29;20526;-87
2022/04/16 13:00:35;;;;;;;1.67;1.10;;;;;;;14.16;45.25;102480.13;5975498;29;20418;-87
2022/04/16 13:03:37;;;;;;;2.33;1.20;;;;;;;14.31;46.14;102480.91;5971269;29;20053;-87
2022/04/16 13:06:40;;;;;;;1.25;1.05;;;;;;;14.42;46.58;102483.69;5970794;29;20409;-87
2022/04/16 13:09:42;;;;;;;1.33;1.10;;;;;;;14.47;47.00;102479.03;5978409;29;20086;-88
2022/04/16 13:12:44;;;;;;;1.30;0.95;;;;;;;14.62;46.24;102475.44;5973077;29;20050;-87
2022/04/16 13:15:46;;;;;;;1.52;1.17;;;;;;;14.81;44.99;102469.88;5971155;29;20050;-87
2022/04/16 13:18:49;;;;;;;1.80;1.02;;;;;;;14.81;42.24;102479.47;5972228;29;20046;-87
2022/04/16 13:21:52;;;;;;;1.30;1.20;;;;;;;14.97;43.58;102468.88;5969117;29;20054;-87
2022/04/16 13:24:57;;;;;;;1.08;0.90;;;;;;;15.11;44.11;102476.59;5973250;29;20158;-87
2022/04/16 13:27:59;;;;;;;1.58;1.17;;;;;;;15.17;44.24;102473.56;5961288;29;20146;-87
2022/04/16 13:31:01;;;;;;;2.53;1.27;;;;;;;15.32;41.82;102465.66;5975452;29;20046;-87
2022/04/16 13:34:03;;;;;;;1.35;1.17;;;;;;;15.33;43.77;102462.94;5971313;29;20042;-87
2022/04/16 13:37:05;;;;;;;1.95;1.30;;;;;;;15.41;45.33;102465.03;5968267;29;20050;-87
2022/04/16 13:43:29;;;;;;;1.20;1.10;;;;;;;15.68;42.96;102462.31;5974624;29;20052;-87
2022/04/16 13:46:31;;;;;;;2.10;1.25;;;;;;;15.74;38.80;102456.66;5968567;29;20046;-87
2022/04/16 13:49:33;;;;;;;2.88;1.25;;;;;;;15.72;42.37;102450.72;5969392;29;20046;-87
2022/04/16 13:52:37;;;;;;;1.17;1.02;;;;;;;15.80;39.06;102445.81;5959610;29;20153;-87
2022/04/16 13:55:39;;;;;;;2.08;1.05;;;;;;;15.82;41.77;102448.28;5976910;29;20051;-87
2022/04/16 13:58:45;;;;;;;1.02;0.90;;;;;;;15.84;39.54;102443.81;5970771;29;20057;-87
2022/04/16 14:01:50;;;;;;;1.55;1.30;;;;;;;15.90;38.20;102438.16;5973051;29;20109;-87
2022/04/16 14:08:12;;;;;;;;;;;;;;;16.00;37.70;102438.31;5978953;29;20060;-88
2022/04/16 14:11:15;;;;;;;2.25;1.05;;;;;;;15.91;43.02;102427.59;5979473;29;19929;-87
2022/04/16 14:14:17;;;;;;;1.23;1.10;;;;;;;16.03;38.75;102425.06;5964344;29;20182;-87
2022/04/16 14:17:20;;;;;;;2.00;1.10;;;;;;;16.10;41.57;102427.13;5966648;29;20753;-87
2022/04/16 14:20:23;;;;;;;2.33;1.50;;;;;;;16.17;42.40;102424.03;5967066;29;20087;-87
2022/04/16 14:23:28;;;;;;;1.55;1.00;;;;;;;16.18;41.16;102423.94;5971766;29;20046;-87
2022/04/16 14:26:30;;;;;;;1.63;0.93;;;;;;;16.28;39.61;102424.13;5978240;29;20145;-87
2022/04/16 14:29:32;;;;;;;2.42;1.30;;;;;;;16.40;41.19;102420.59;5966568;29;20502;-87
2022/04/16 14:32:35;;;;;;;2.22;1.40;;;;;;;16.49;37.48;102419.06;5976808;29;20066;-87
2022/04/16 14:35:39;;;;;;;3.83;3.08;;;;;;;16.58;38.89;102424.47;5967584;29;20047;-87
2022/04/16 14:38:42;;;;;;;1.95;1.10;;;;;;;16.63;38.73;102410.22;5985461;29;20050;-88
2022/04/16 14:41:45;;;;;;;1.23;0.95;;;;;;;16.66;36.48;102410.81;5984474;29;20145;-87
2022/04/16 14:44:52;;;;;;;2.63;1.17;;;;;;;16.70;38.52;102400.97;5966226;29;20096;-87